Time;durP1;ratioP1;P1;durP2;ratioP2;P2;SDS_P1;SDS_P2;PMS_P1;PMS_P2;Temp;Humidity;BMP_temperature;BMP_pressure;BME280_temperature;BME280_humidity;BME280_pressure;Samples;Min_cycle;Max_cycle;Signal;HPM_P1;HPM_P2
2023/02/09 00:01:46;;;;;;;32.47;21.13;;;0.00;99.90;;;-1.17;100.00;102790.19;4153532;28;20053;-78
2023/02/09 00:03:48;;;;;;;37.13;22.30;;;0.00;99.90;;;-1.22;100.00;102780.78;4154647;28;20508;-78
2023/02/09 00:05:49;;;;;;;38.60;23.05;;;-0.10;99.90;;;-1.23;100.00;102782.56;4153223;28;20040;-78
2023/02/09 00:07:50;;;;;;;36.22;21.42;;;-0.10;99.90;;;-1.23;100.00;102792.91;4166947;28;20033;-78
2023/02/09 00:09:51;;;;;;;38.28;21.05;;;-0.10;99.90;;;-1.25;100.00;102798.97;4154548;28;20484;-78
2023/02/09 00:14:14;;;;;;;38.20;23.00;;;-0.10;99.90;;;-1.31;100.00;102802.53;4153415;28;20074;-78
2023/02/09 00:16:15;;;;;;;36.85;22.25;;;-0.20;99.90;;;-1.34;100.00;102794.84;4153162;28;20036;-78
2023/02/09 00:18:16;;;;;;;38.22;23.23;;;-0.20;99.90;;;-1.32;100.00;102797.41;4169481;28;20057;-78
2023/02/09 00:20:17;;;;;;;36.67;21.52;;;-0.20;99.90;;;-1.31;100.00;102797.38;4153284;28;20022;-78
2023/02/09 00:22:18;;;;;;;39.63;22.67;;;-0.20;99.90;;;-1.22;100.00;102801.50;4154318;28;20064;-78
2023/02/09 00:24:19;;;;;;;39.95;24.17;;;-0.20;99.90;;;-1.14;100.00;102797.03;4154035;28;20046;-78
2023/02/09 00:26:20;;;;;;;37.83;23.02;;;-0.20;99.90;;;-1.22;100.00;102801.50;4154394;28;20029;-78
2023/02/09 00:28:21;;;;;;;39.22;23.70;;;-0.10;99.90;;;-1.27;100.00;102800.75;4162026;28;20030;-78
2023/02/09 00:30:22;;;;;;;32.45;21.05;;;-0.20;99.90;;;-1.36;100.00;102799.19;4169339;28;20435;-78
2023/02/09 00:32:23;;;;;;;41.38;21.95;;;-0.20;99.90;;;-1.41;100.00;102803.63;4168496;28;20052;-78
2023/02/09 00:34:23;;;;;;;34.90;22.13;;;-0.30;99.90;;;-1.47;100.00;102800.28;4158136;28;20029;-78
2023/02/09 00:36:24;;;;;;;38.28;22.58;;;-0.30;99.90;;;-1.48;100.00;102799.44;4169097;28;20108;-78
2023/02/09 00:38:25;;;;;;;35.72;22.40;;;-0.30;99.90;;;-1.47;100.00;102795.97;4169293;28;20041;-78
2023/02/09 00:40:26;;;;;;;33.22;21.30;;;-0.30;99.90;;;-1.50;100.00;102796.03;4169046;28;20081;-78
2023/02/09 00:42:27;;;;;;;37.13;21.48;;;-0.30;99.90;;;-1.53;100.00;102790.91;4152933;28;20026;-78
2023/02/09 00:44:28;;;;;;;38.90;22.20;;;-0.40;99.90;;;-1.60;100.00;102804.84;4154052;28;20033;-78
2023/02/09 00:46:29;;;;;;;34.92;22.92;;;-0.40;99.90;;;-1.70;100.00;102800.69;4153977;28;20048;-78
2023/02/09 00:48:30;;;;;;;36.83;22.40;;;-0.50;99.90;;;-1.72;100.00;102799.88;4153810;28;20549;-78
2023/02/09 00:50:31;;;;;;;36.83;22.70;;;-0.50;99.90;;;-1.76;100.00;102799.06;4154110;28;20065;-78
2023/02/09 00:52:32;;;;;;;40.10;22.80;;;-0.60;99.90;;;-1.77;100.00;102797.41;4153723;28;20022;-78
2023/02/09 00:54:33;;;;;;;36.20;21.58;;;-0.60;99.90;;;-1.78;100.00;102800.00;4152441;28;20034;-79
2023/02/09 00:56:34;;;;;;;39.42;22.60;;;-0.60;99.90;;;-1.79;100.00;102799.13;4168955;28;20029;-78
2023/02/09 00:58:35;;;;;;;34.90;21.23;;;-0.70;99.90;;;-1.78;100.00;102805.16;4152670;28;20054;-78
2023/02/09 01:00:36;;;;;;;35.92;22.02;;;-0.60;99.90;;;-1.79;100.00;102806.03;4153774;28;20030;-78
2023/02/09 01:02:37;;;;;;;36.20;23.00;;;-0.70;99.90;;;-1.83;100.00;102799.22;4156351;28;20026;-78
2023/02/09 01:04:38;;;;;;;41.60;23.52;;;-0.70;99.90;;;-1.88;100.00;102798.47;4171894;28;20416;-78
2023/02/09 01:06:39;;;;;;;38.22;22.92;;;-0.70;99.90;;;-1.85;100.00;102799.25;4152342;28;20028;-78
2023/02/09 01:08:40;;;;;;;36.80;22.58;;;-0.70;99.90;;;-1.80;100.00;102791.41;4159826;28;20075;-78
2023/02/09 01:10:40;;;;;;;39.25;25.45;;;-0.70;99.90;;;-1.76;100.00;102804.25;4162668;28;20029;-78
2023/02/09 01:12:42;;;;;;;45.88;25.85;;;-0.70;99.90;;;-1.73;100.00;102803.34;4169850;28;20025;-78
2023/02/09 01:14:43;;;;;;;43.20;26.02;;;-0.70;99.90;;;-1.72;100.00;102794.72;4168644;28;20017;-78
2023/02/09 01:16:43;;;;;;;43.50;27.00;;;-0.60;99.90;;;-1.63;100.00;102804.03;4168751;28;20037;-78
2023/02/09 01:18:44;;;;;;;36.45;22.08;;;-0.60;99.90;;;-1.64;100.00;102804.94;4169836;28;20451;-78
2023/02/09 01:20:45;;;;;;;36.63;23.13;;;-0.60;99.90;;;-1.67;100.00;102793.75;4169608;28;20051;-78
2023/02/09 01:22:46;;;;;;;41.65;25.55;;;-0.60;99.90;;;-1.63;100.00;102799.72;4168094;28;20057;-78
2023/02/09 01:24:48;;;;;;;45.80;26.98;;;-0.60;99.90;;;-1.60;100.00;102804.84;4169486;28;20408;-78
2023/02/09 01:26:49;;;;;;;42.08;25.05;;;-0.50;99.90;;;-1.56;100.00;102810.81;4168621;28;20065;-79
2023/02/09 01:28:51;;;;;;;41.65;24.90;;;-0.50;99.90;;;-1.58;100.00;102807.41;4157040;28;20022;-78
2023/02/09 01:30:52;;;;;;;41.42;23.38;;;-0.50;99.90;;;-1.61;100.00;102807.47;4152153;28;20037;-78
2023/02/09 01:32:53;;;;;;;39.17;22.80;;;-0.50;99.90;;;-1.65;100.00;102814.44;4163282;28;20501;-78
2023/02/09 01:34:54;;;;;;;39.95;23.77;;;-0.50;99.90;;;-1.70;100.00;102817.09;4153161;28;20065;-78
2023/02/09 01:36:55;;;;;;;35.80;22.88;;;-0.60;99.90;;;-1.75;100.00;102816.31;4151822;28;20021;-78
2023/02/09 01:38:59;;;;;;;43.00;23.48;;;-0.60;99.90;;;-1.79;100.00;102806.03;4153149;28;20030;-78
2023/02/09 01:41:00;;;;;;;43.17;25.25;;;-0.60;99.90;;;-1.75;100.00;102807.69;4152069;28;20548;-78
2023/02/09 01:43:01;;;;;;;50.33;27.15;;;-0.70;99.90;;;-1.75;100.00;102805.13;4153229;28;20034;-78
2023/02/09 01:45:22;;;;;;;50.78;27.75;;;-0.60;99.90;;;-1.70;100.00;102806.72;4151903;28;20053;-78
2023/02/09 01:47:23;;;;;;;44.50;24.95;;;-0.60;99.90;;;-1.73;100.00;102795.59;4158637;28;20055;-78
2023/02/09 01:49:26;;;;;;;44.78;25.17;;;-0.60;99.90;;;-1.69;100.00;102798.09;4168401;28;20112;-78
2023/02/09 01:51:28;;;;;;;41.42;24.95;;;-0.60;99.90;;;-1.71;100.00;102796.44;4168024;28;20033;-78
2023/02/09 01:53:29;;;;;;;40.90;23.80;;;-0.60;99.90;;;-1.72;100.00;102800.75;4165728;28;20539;-78
2023/02/09 01:55:34;;;;;;;43.95;26.05;;;-0.60;99.90;;;-1.73;100.00;102801.63;4152939;28;20044;-78
2023/02/09 01:57:44;;;;;;;43.67;25.52;;;-0.60;99.90;;;-1.77;100.00;102793.94;4151964;28;20065;-78
2023/02/09 01:59:59;;;;;;;42.97;26.90;;;-0.60;99.90;;;-1.81;100.00;102794.88;4135822;28;20027;-78
2023/02/09 02:02:01;;;;;;;47.65;26.73;;;-0.70;99.90;;;-1.81;100.00;102800.03;4151842;28;20026;-78
2023/02/09 02:04:02;;;;;;;44.60;26.45;;;-0.70;99.90;;;-1.82;100.00;102788.84;4151545;28;20084;-78
2023/02/09 02:06:10;;;;;;;43.05;25.75;;;-0.70;99.90;;;-1.78;100.00;102789.66;4167897;28;20516;-78
2023/02/09 02:08:37;;;;;;;49.10;27.38;;;-0.70;99.90;;;-1.72;100.00;102797.28;4156055;28;20032;-78
2023/02/09 02:10:38;;;;;;;41.85;24.52;;;-0.60;99.90;;;-1.75;100.00;102800.78;4168059;28;20033;-78
2023/02/09 02:12:40;;;;;;;46.33;26.83;;;-0.60;99.90;;;-1.76;100.00;102799.06;4167904;28;20035;-78
2023/02/09 02:14:41;;;;;;;41.13;24.70;;;-0.60;99.90;;;-1.76;100.00;102796.50;4167671;28;20074;-78
2023/02/09 02:17:56;;;;;;;38.78;24.08;;;-0.60;99.90;;;-1.79;100.00;102801.72;4169220;28;20030;-78
2023/02/09 02:20:15;;;;;;;44.47;23.92;;;-0.60;99.90;;;-1.84;100.00;102794.94;4157880;28;20030;-78
2023/02/09 02:22:34;;;;;;;38.22;23.08;;;-0.70;99.90;;;-1.90;100.00;102795.91;4168730;28;20025;-78
2023/02/09 02:25:10;;;;;;;39.28;23.73;;;-0.70;99.90;;;-1.94;100.00;102790.81;4168748;28;20041;-78
2023/02/09 02:27:20;;;;;;;44.30;24.33;;;-0.80;99.90;;;-1.94;100.00;102788.22;4169433;28;20032;-78
2023/02/09 02:30:01;;;;;;;45.58;25.45;;;-0.80;99.90;;;-1.94;100.00;102783.06;4156032;28;20037;-78
2023/02/09 02:32:48;;;;;;;36.30;22.42;;;-0.80;99.90;;;-1.94;100.00;102783.06;4168709;28;20033;-78
2023/02/09 02:35:07;;;;;;;;;;;-0.80;99.90;;;-2.01;100.00;102776.28;4173148;28;20029;-78
2023/02/09 02:37:48;;;;;;;37.75;21.63;;;-0.80;99.90;;;-2.02;100.00;102775.41;4168506;28;19959;-78
2023/02/09 02:40:22;;;;;;;40.97;24.05;;;-0.80;99.90;;;-2.04;100.00;102772.00;4168791;28;20033;-78
2023/02/09 02:42:50;;;;;;;34.95;20.55;;;-0.90;99.90;;;-2.03;100.00;102768.53;4169081;28;20025;-78
2023/02/09 02:45:20;;;;;;;40.15;23.27;;;-0.90;99.90;;;-2.11;100.00;102774.72;4138967;28;20580;-78
2023/02/09 02:47:22;;;;;;;40.28;23.35;;;-0.90;99.90;;;-2.17;100.00;102765.34;4157298;28;20079;-78
2023/02/09 02:49:53;;;;;;;40.40;22.85;;;-0.90;99.90;;;-2.19;100.00;102766.25;4167508;28;20112;-78
2023/02/09 02:52:00;;;;;;;42.05;22.70;;;-1.00;99.90;;;-2.21;100.00;102768.00;4167306;28;20030;-78
2023/02/09 02:54:12;;;;;;;44.08;22.20;;;-1.00;99.90;;;-2.22;100.00;102772.31;4167756;28;20037;-78
2023/02/09 02:56:20;;;;;;;41.65;22.85;;;-1.00;99.90;;;-2.18;100.00;102778.28;4167415;28;20057;-78
2023/02/09 02:58:22;;;;;;;36.63;23.05;;;-1.00;99.90;;;-2.27;100.00;102774.13;4167343;28;20027;-78
2023/02/09 03:00:49;;;;;;;40.08;22.63;;;-1.10;99.90;;;-2.29;100.00;102773.28;4167654;28;20030;-78
2023/02/09 03:02:55;;;;;;;42.80;22.02;;;-1.10;99.90;;;-2.29;100.00;102776.72;4167384;28;20076;-78
2023/02/09 03:05:00;;;;;;;36.90;22.25;;;-1.10;99.90;;;-2.28;100.00;102773.28;4167224;28;20448;-78
2023/02/09 03:07:04;;;;;;;;;;;-1.20;99.90;;;-2.37;100.00;102772.56;4167642;28;20057;-78
2023/02/09 03:09:05;;;;;;;36.00;21.10;;;-1.10;99.90;;;-2.35;100.00;102774.25;4167553;28;19970;-78
2023/02/09 03:11:10;;;;;;;41.15;23.00;;;-1.20;99.90;;;-2.28;100.00;102785.34;4150786;28;20029;-78
2023/02/09 03:13:39;;;;;;;41.67;23.58;;;-1.20;99.90;;;-2.27;100.00;102785.31;4150879;28;20045;-78
2023/02/09 03:16:27;;;;;;;43.40;23.15;;;-1.20;99.90;;;-2.29;100.00;102779.31;4152168;28;20085;-78
2023/02/09 03:18:40;;;;;;;48.20;26.70;;;-1.10;99.90;;;-2.21;100.00;102773.19;4158586;28;20030;-78
2023/02/09 03:21:14;;;;;;;59.00;30.75;;;-1.10;99.90;;;-2.11;100.00;102772.13;4168239;28;20033;-78
2023/02/09 03:23:54;;;;;;;54.38;29.40;;;-1.10;99.90;;;-2.03;100.00;102773.69;4167346;28;20026;-78
2023/02/09 03:25:57;;;;;;;55.35;29.90;;;-1.00;99.90;;;-1.98;100.00;102761.56;4166943;28;20033;-79
2023/02/09 03:28:09;;;;;;;53.80;29.92;;;-0.90;99.90;;;-1.91;100.00;102757.97;4167305;28;20117;-78
2023/02/09 03:30:15;;;;;;;54.67;31.02;;;-0.90;99.90;;;-1.85;100.00;102762.22;4168479;28;20025;-78
2023/02/09 03:32:18;;;;;;;51.28;29.65;;;-0.80;99.90;;;-1.81;100.00;102763.84;4166179;28;20033;-78
2023/02/09 03:34:19;;;;;;;50.45;29.90;;;-0.80;99.90;;;-1.72;100.00;102766.25;4152007;28;20040;-78
2023/02/09 03:36:20;;;;;;;50.35;29.40;;;-0.70;99.90;;;-1.80;100.00;102768.13;4150466;28;20030;-78
2023/02/09 03:38:23;;;;;;;53.70;27.80;;;-0.70;99.90;;;-1.83;100.00;102773.38;4167242;28;20116;-78
2023/02/09 03:40:24;;;;;;;44.90;27.88;;;-0.70;99.90;;;-1.90;100.00;102770.03;4151778;28;20026;-78
2023/02/09 03:42:25;;;;;;;51.88;28.30;;;-0.70;99.90;;;-1.89;100.00;102773.47;4151990;28;20026;-78
2023/02/09 03:44:25;;;;;;;47.72;27.45;;;-0.80;99.90;;;-1.89;100.00;102773.47;4151720;28;20018;-78
2023/02/09 03:46:26;;;;;;;53.53;29.40;;;-0.80;99.90;;;-1.92;100.00;102765.78;4153161;28;20065;-78
2023/02/09 03:48:27;;;;;;;47.90;28.60;;;-0.80;99.90;;;-1.96;100.00;102754.63;4153691;28;20029;-78
2023/02/09 03:50:28;;;;;;;45.90;26.58;;;-0.80;99.90;;;-1.92;100.00;102758.88;4154839;28;20033;-78
2023/02/09 03:52:30;;;;;;;44.58;25.95;;;-0.80;99.90;;;-1.95;100.00;102760.66;4170095;28;20049;-78
2023/02/09 03:54:32;;;;;;;41.92;25.05;;;-0.80;99.90;;;-2.00;100.00;102765.88;4154986;28;20497;-78
2023/02/09 03:56:33;;;;;;;49.10;25.85;;;-0.80;99.90;;;-2.04;100.00;102760.81;4164540;28;20140;-78
2023/02/09 03:58:37;;;;;;;45.63;27.55;;;-0.80;99.90;;;-2.06;100.00;102758.25;4153525;28;20169;-78
2023/02/09 04:00:38;;;;;;;46.28;27.13;;;-0.90;99.90;;;-2.13;100.00;102748.91;4154755;28;20034;-78
2023/02/09 04:02:39;;;;;;;54.60;29.13;;;-0.90;99.90;;;-2.07;100.00;102760.88;4153655;28;20058;-78
2023/02/09 04:04:40;;;;;;;44.05;26.35;;;-0.90;99.90;;;-2.07;100.00;102755.69;4154599;28;20030;-78
2023/02/09 04:06:41;;;;;;;49.78;26.65;;;-0.90;99.90;;;-2.04;100.00;102759.09;4153234;28;20022;-78
2023/02/09 04:08:42;;;;;;;48.88;28.88;;;-0.90;99.90;;;-2.04;100.00;102760.81;4153452;28;20029;-78
2023/02/09 04:10:42;;;;;;;48.65;26.75;;;-0.90;99.90;;;-2.02;100.00;102761.63;4157080;28;20028;-78
2023/02/09 04:12:43;;;;;;;48.45;27.85;;;-0.90;99.90;;;-2.01;100.00;102755.59;4169309;28;20065;-78
2023/02/09 04:14:44;;;;;;;43.78;26.08;;;-0.90;99.90;;;-1.97;100.00;102758.06;4154974;28;20161;-78
2023/02/09 04:16:45;;;;;;;45.40;26.10;;;-0.90;99.90;;;-1.96;100.00;102758.94;4154657;28;20077;-78
2023/02/09 04:18:46;;;;;;;45.78;27.55;;;-0.90;99.90;;;-1.94;100.00;102758.03;4154418;28;20504;-78
2023/02/09 04:20:47;;;;;;;48.47;27.63;;;-0.80;99.90;;;-1.99;100.00;102762.44;4157345;28;20516;-78
2023/02/09 04:22:48;;;;;;;47.95;28.42;;;-0.80;99.90;;;-2.04;100.00;102760.81;4154219;28;20033;-78
2023/02/09 04:24:49;;;;;;;46.15;27.92;;;-0.90;99.90;;;-2.09;100.00;102754.88;4153089;28;20100;-78
2023/02/09 04:26:50;;;;;;;49.45;27.08;;;-0.90;99.90;;;-2.06;100.00;102762.59;4154476;28;20021;-78
2023/02/09 04:28:50;;;;;;;43.13;24.95;;;-0.90;99.90;;;-2.08;100.00;102759.16;4167113;28;20066;-78
2023/02/09 04:30:56;;;;;;;40.45;24.10;;;-1.00;99.90;;;-2.11;100.00;102754.03;4167880;28;20140;-78
2023/02/09 04:32:57;;;;;;;42.00;25.27;;;-1.00;99.90;;;-2.12;100.00;102758.34;4152932;28;20550;-78
2023/02/09 04:34:57;;;;;;;46.22;26.05;;;-0.90;99.90;;;-2.12;100.00;102762.69;4154081;28;20086;-78
2023/02/09 04:36:58;;;;;;;42.38;26.02;;;-1.00;99.90;;;-2.15;100.00;102758.41;4152685;28;20030;-78
2023/02/09 04:38:59;;;;;;;42.67;25.02;;;-1.00;99.90;;;-2.14;100.00;102765.28;4152861;28;20512;-78
2023/02/09 04:41:02;;;;;;;41.63;25.42;;;-1.00;99.90;;;-2.13;100.00;102760.97;4169559;28;20060;-78
2023/02/09 04:43:03;;;;;;;45.33;27.38;;;-1.00;99.90;;;-2.13;100.00;102764.41;4169157;28;20029;-78
2023/02/09 04:45:05;;;;;;;51.35;29.23;;;-1.00;99.90;;;-2.07;100.00;102769.47;4153104;28;20068;-78
2023/02/09 04:47:06;;;;;;;50.58;27.90;;;-0.90;99.90;;;-2.01;100.00;102773.69;4152659;28;20412;-78
2023/02/09 04:49:07;;;;;;;49.30;27.20;;;-0.90;99.90;;;-2.02;100.00;102765.06;4163125;28;20033;-78
2023/02/09 04:51:08;;;;;;;47.10;27.05;;;-0.90;99.90;;;-1.95;100.00;102781.34;4139074;28;20031;-78
2023/02/09 04:53:09;;;;;;;49.33;28.83;;;-0.80;99.90;;;-2.00;100.00;102768.47;4152655;28;20113;-78
2023/02/09 04:55:10;;;;;;;52.10;28.00;;;-0.90;99.90;;;-1.93;100.00;102764.06;4168846;28;20450;-78
2023/02/09 04:59:33;;;;;;;45.25;26.27;;;-0.80;99.90;;;-2.13;100.00;102771.31;4170126;28;20519;-78
2023/02/09 05:01:34;;;;;;;43.45;26.55;;;-0.90;99.90;;;-2.21;100.00;102786.09;4167574;28;20436;-78
2023/02/09 05:03:35;;;;;;;40.85;23.85;;;-1.00;99.90;;;-2.31;100.00;102788.84;4154001;28;20033;-78
2023/02/09 05:05:40;;;;;;;41.17;26.02;;;-1.10;99.90;;;-2.46;100.00;102804.56;4153578;28;20847;-78
2023/02/09 05:07:40;;;;;;;46.47;26.23;;;-1.20;99.90;;;-2.56;100.00;102797.81;4153795;28;20022;-78
2023/02/09 05:09:41;;;;;;;43.35;24.90;;;-1.30;99.90;;;-2.61;100.00;102794.47;4153509;28;20540;-78
2023/02/09 05:11:42;;;;;;;40.33;23.65;;;-1.40;99.90;;;-2.66;100.00;102804.03;4157990;28;20041;-78
2023/02/09 05:13:43;;;;;;;42.88;23.73;;;-1.40;99.90;;;-2.67;100.00;102804.03;4153706;28;20397;-78
2023/02/09 05:15:44;;;;;;;38.50;23.15;;;-1.40;99.90;;;-2.74;100.00;102803.25;4153392;28;20065;-78
2023/02/09 05:17:45;;;;;;;38.13;24.15;;;-1.50;99.90;;;-2.73;100.00;102804.97;4152193;28;20022;-78
2023/02/09 05:19:47;;;;;;;40.53;23.75;;;-1.50;99.90;;;-2.74;100.00;102813.56;4153608;28;20055;-78
2023/02/09 05:21:48;;;;;;;42.13;23.95;;;-1.50;99.90;;;-2.74;100.00;102808.41;4154812;28;20026;-78
2023/02/09 05:23:49;;;;;;;44.58;26.55;;;-1.50;99.90;;;-2.67;100.00;102820.38;4153317;28;20042;-78
2023/02/09 05:25:50;;;;;;;46.72;27.90;;;-1.50;99.90;;;-2.59;100.00;102822.84;4151967;28;20516;-78
2023/02/09 05:27:51;;;;;;;58.25;30.23;;;-1.50;99.90;;;-2.40;100.00;102808.78;4152278;28;20061;-78
2023/02/09 05:29:52;;;;;;;45.72;26.67;;;-1.40;99.90;;;-2.35;100.00;102815.59;4148229;28;20029;-78
2023/02/09 05:31:53;;;;;;;47.28;27.15;;;-1.30;99.90;;;-2.34;100.00;102817.31;4167433;28;20025;-78
2023/02/09 05:33:54;;;;;;;46.75;27.10;;;-1.20;99.90;;;-2.32;100.00;102818.13;4155166;28;20030;-78
2023/02/09 05:35:55;;;;;;;45.22;26.77;;;-1.20;99.90;;;-2.32;100.00;102825.88;4151818;28;20038;-78
2023/02/09 05:37:55;;;;;;;43.28;26.42;;;-1.20;99.90;;;-2.33;100.00;102824.16;4152167;28;20057;-78
2023/02/09 05:39:57;;;;;;;49.53;28.38;;;-1.20;99.90;;;-2.32;100.00;102832.78;4153151;28;20034;-78
2023/02/09 05:42:16;;;;;;;50.75;27.95;;;-1.20;99.90;;;-2.26;100.00;102833.53;4164133;28;20087;-78
2023/02/09 05:44:17;;;;;;;55.45;30.08;;;-1.20;99.90;;;-2.10;100.00;102838.47;4152154;28;20049;-77
2023/02/09 05:46:18;;;;;;;49.70;28.33;;;-1.10;99.90;;;-2.03;100.00;102850.44;4153099;28;20030;-78
2023/02/09 05:48:19;;;;;;;47.28;26.45;;;-1.00;99.90;;;-2.03;100.00;102848.69;4153046;28;20041;-78
2023/02/09 05:50:20;;;;;;;51.80;28.60;;;-1.00;99.90;;;-2.03;100.00;102846.09;4152864;28;20030;-78
2023/02/09 05:52:21;;;;;;;44.58;27.33;;;-0.90;99.90;;;-1.92;100.00;102851.13;4161724;28;20030;-78
2023/02/09 05:54:22;;;;;;;48.03;26.95;;;-0.80;99.90;;;-1.85;100.00;102855.31;4151920;28;20465;-78
2023/02/09 05:56:23;;;;;;;47.85;27.48;;;-0.80;99.90;;;-1.79;100.00;102856.03;4152161;28;20040;-78
2023/02/09 05:58:23;;;;;;;43.97;25.13;;;-0.70;99.90;;;-1.75;100.00;102846.50;4151593;28;20026;-78
2023/02/09 06:00:25;;;;;;;37.75;24.67;;;-0.60;99.90;;;-1.66;100.00;102861.88;4135524;28;20030;-78
2023/02/09 06:02:26;;;;;;;39.25;23.23;;;-0.50;99.90;;;-1.50;100.00;102868.50;4159734;28;20129;-79
2023/02/09 06:04:28;;;;;;;38.08;23.00;;;-0.40;99.90;;;-1.42;100.00;102864.03;4164502;28;20029;-78
2023/02/09 06:06:29;;;;;;;43.88;25.25;;;-0.30;99.90;;;-1.24;100.00;102875.78;4167686;28;20048;-78
2023/02/09 06:08:29;;;;;;;37.33;23.80;;;-0.20;99.90;;;-1.16;100.00;102877.34;4169338;28;20038;-78
2023/02/09 06:10:30;;;;;;;38.88;24.27;;;0.00;99.90;;;-0.99;100.00;102873.56;4169034;28;20488;-78
2023/02/09 06:12:31;;;;;;;41.03;24.50;;;0.10;99.90;;;-0.85;100.00;102876.72;4172781;28;20033;-78
2023/02/09 06:14:32;;;;;;;39.78;23.65;;;0.20;99.90;;;-0.81;100.00;102881.84;4163988;28;20027;-78
2023/02/09 06:16:33;;;;;;;41.90;24.55;;;0.30;99.90;;;-0.84;100.00;102875.84;4151497;28;20061;-78
2023/02/09 06:18:34;;;;;;;35.70;22.55;;;0.30;99.90;;;-0.79;100.00;102881.78;4159217;28;20032;-78
2023/02/09 06:20:35;;;;;;;33.40;20.88;;;0.40;99.90;;;-0.76;100.00;102880.00;4157432;28;20026;-78
2023/02/09 06:22:36;;;;;;;40.42;23.30;;;0.40;99.90;;;-0.76;100.00;102882.59;4171139;28;20051;-78
2023/02/09 06:24:37;;;;;;;35.92;22.80;;;0.40;99.90;;;-0.73;100.00;102882.53;4172996;28;20054;-78
2023/02/09 06:26:40;;;;;;;35.45;20.70;;;0.50;99.90;;;-0.65;100.00;102887.53;4161098;28;20074;-78
2023/02/09 06:28:41;;;;;;;37.15;23.88;;;0.50;99.90;;;-0.63;100.00;102881.41;4172559;28;20104;-78
2023/02/09 06:30:42;;;;;;;39.15;23.85;;;0.50;99.90;;;-0.68;100.00;102892.78;4155538;28;20037;-78
2023/02/09 06:32:43;;;;;;;43.85;25.67;;;0.50;99.90;;;-0.81;100.00;102896.53;4179220;28;20037;-78
2023/02/09 06:34:44;;;;;;;41.88;25.33;;;0.40;99.90;;;-0.80;100.00;102890.44;4151240;28;20070;-78
2023/02/09 06:36:45;;;;;;;35.50;21.85;;;0.40;99.90;;;-0.79;100.00;102894.75;4151511;28;20465;-78
2023/02/09 06:38:45;;;;;;;38.65;22.60;;;0.40;99.90;;;-0.77;100.00;102896.41;4166936;28;20033;-78
2023/02/09 06:40:46;;;;;;;36.50;22.33;;;0.40;99.90;;;-0.72;100.00;102891.16;4168741;28;20057;-78
2023/02/09 06:42:47;;;;;;;35.70;21.98;;;0.50;99.90;;;-0.72;100.00;102885.97;4166965;28;20045;-79
2023/02/09 06:44:48;;;;;;;38.97;22.85;;;0.50;99.90;;;-0.70;100.00;102892.81;4156615;28;20026;-79
2023/02/09 06:46:49;;;;;;;37.83;23.05;;;0.50;99.90;;;-0.65;100.00;102897.91;4152412;28;20486;-78
2023/02/09 06:48:50;;;;;;;35.92;21.08;;;0.50;99.90;;;-0.67;100.00;102894.50;4152413;28;20073;-79
2023/02/09 06:50:51;;;;;;;36.65;21.67;;;0.50;99.90;;;-0.65;100.00;102908.25;4153490;28;20061;-79
2023/02/09 06:52:52;;;;;;;41.60;23.55;;;0.50;99.90;;;-0.62;100.00;102897.84;4161636;28;20037;-78
2023/02/09 06:54:53;;;;;;;36.70;21.92;;;0.50;99.90;;;-0.59;100.00;102901.22;4152121;28;20022;-79
2023/02/09 06:56:54;;;;;;;33.05;21.40;;;0.50;99.90;;;-0.58;100.00;102902.06;4151093;28;20412;-79
2023/02/09 06:58:55;;;;;;;30.85;20.25;;;0.60;99.90;;;-0.55;100.00;102904.59;4152320;28;20024;-79
2023/02/09 07:01:09;;;;;;;35.22;22.45;;;0.60;99.90;;;-0.48;100.00;102900.16;4154039;28;20014;-78
2023/02/09 07:03:10;;;;;;;32.20;21.50;;;0.60;99.90;;;-0.42;100.00;102907.78;4167241;28;20026;-78
2023/02/09 07:05:12;;;;;;;36.55;22.33;;;0.70;99.90;;;-0.33;100.00;102910.19;4163153;28;20037;-78
2023/02/09 07:07:15;;;;;;;35.15;21.23;;;0.80;99.90;;;-0.30;100.00;102904.94;4150856;28;20030;-78
2023/02/09 07:09:15;;;;;;;28.98;20.13;;;0.80;99.90;;;-0.26;100.00;102904.81;4151087;28;20030;-78
2023/02/09 07:11:18;;;;;;;29.63;20.65;;;0.90;99.90;;;-0.23;100.00;102912.53;4154111;28;20033;-78
2023/02/09 07:13:19;;;;;;;34.20;21.55;;;0.90;99.90;;;-0.21;100.00;102910.75;4156857;28;20112;-78
2023/02/09 07:15:19;;;;;;;33.92;20.38;;;0.90;99.90;;;-0.15;100.00;102917.56;4168439;28;20072;-78
2023/02/09 07:17:20;;;;;;;31.85;21.67;;;1.00;99.90;;;-0.19;100.00;102919.38;4167155;28;20029;-78
2023/02/09 07:19:21;;;;;;;31.52;19.30;;;1.00;99.90;;;-0.16;100.00;102924.50;4150696;28;20026;-78
2023/02/09 07:21:22;;;;;;;33.58;20.02;;;1.00;99.90;;;-0.13;100.00;102931.34;4164216;28;20040;-78
2023/02/09 07:23:24;;;;;;;34.28;21.83;;;1.00;99.90;;;-0.24;100.00;102935.91;4153742;28;20053;-78
2023/02/09 07:25:25;;;;;;;35.15;21.48;;;1.00;99.90;;;-0.22;100.00;102935.00;4170380;28;20037;-79
2023/02/09 07:27:26;;;;;;;35.28;22.02;;;1.00;99.90;;;-0.26;100.00;102943.72;4156246;28;20034;-79
2023/02/09 07:29:27;;;;;;;37.65;23.50;;;0.90;99.90;;;-0.24;100.00;102947.13;4170493;28;20057;-79
2023/02/09 07:31:28;;;;;;;34.58;22.00;;;0.90;99.90;;;-0.22;100.00;102955.75;4169914;28;20017;-79
2023/02/09 07:33:29;;;;;;;34.22;21.88;;;0.90;99.90;;;-0.28;100.00;102961.06;4170354;28;20048;-78
2023/02/09 07:35:30;;;;;;;41.35;24.23;;;0.90;99.90;;;-0.31;100.00;102955.94;4169664;28;20025;-78
2023/02/09 07:37:33;;;;;;;43.03;25.17;;;0.90;99.90;;;-0.23;100.00;102964.41;4165957;28;20033;-78
2023/02/09 07:39:34;;;;;;;35.83;23.08;;;0.90;99.90;;;-0.14;100.00;102973.72;4161546;28;20017;-78
2023/02/09 07:41:35;;;;;;;36.50;21.95;;;1.00;99.90;;;-0.08;100.00;102968.41;4171265;28;20032;-79
2023/02/09 07:43:35;;;;;;;38.95;24.17;;;1.10;99.90;;;-0.04;100.00;102963.13;4157073;28;20056;-78
2023/02/09 07:45:36;;;;;;;37.92;22.15;;;1.10;99.90;;;0.02;100.00;102966.47;4153847;28;20497;-78
2023/02/09 07:47:37;;;;;;;38.67;24.45;;;1.10;99.90;;;0.06;100.00;102970.69;4153836;28;20029;-78
2023/02/09 07:49:38;;;;;;;39.88;24.83;;;1.20;99.90;;;0.17;100.00;102979.09;4153515;28;20073;-79
2023/02/09 07:51:39;;;;;;;42.33;23.50;;;1.30;99.90;;;0.25;100.00;102972.81;4169602;28;20029;-78
2023/02/09 07:53:40;;;;;;;35.67;24.40;;;1.30;99.90;;;0.36;100.00;102963.03;4154951;28;20444;-78
2023/02/09 07:55:41;;;;;;;35.03;24.13;;;1.40;99.90;;;0.45;100.00;102947.25;4153754;28;20026;-79
2023/02/09 07:57:43;;;;;;;35.38;22.63;;;1.60;99.90;;;0.60;100.00;102945.19;4153493;28;20454;-79
2023/02/09 07:59:43;;;;;;;36.50;23.13;;;1.70;99.90;;;0.72;100.00;102950.88;4166931;28;20504;-78
2023/02/09 08:01:45;;;;;;;35.80;22.42;;;1.80;99.90;;;0.76;100.00;102960.31;4168109;28;20121;-78
2023/02/09 08:03:48;;;;;;;40.88;25.67;;;1.80;99.90;;;0.81;100.00;102970.56;4171644;28;20028;-79
2023/02/09 08:06:17;;;;;;;33.88;19.40;;;1.90;99.90;;;0.85;100.00;102973.06;4170881;28;20030;-79
2023/02/09 08:08:18;;;;;;;35.90;22.52;;;1.90;99.90;;;0.91;100.00;102964.25;4169950;28;20116;-79
2023/02/09 08:10:19;;;;;;;37.97;23.35;;;2.00;99.90;;;0.91;100.00;102959.91;4186170;28;20029;-79
2023/02/09 08:12:58;;;;;;;35.25;22.48;;;2.00;99.90;;;0.99;100.00;102978.75;4170952;28;20547;-79
2023/02/09 08:14:49;;;;;;;34.50;22.88;;;2.10;99.90;;;0.91;100.00;102972.91;4169941;28;20120;-78
2023/02/09 08:17:18;;;;;;;40.30;22.05;;;2.10;99.90;;;1.03;100.00;102985.59;4169805;28;20053;-79
2023/02/09 08:19:21;;;;;;;38.83;23.00;;;2.10;99.90;;;1.08;100.00;102975.91;4168665;28;20033;-78
2023/02/09 08:21:23;;;;;;;33.47;21.73;;;2.20;99.90;;;1.24;100.00;102985.91;4153118;28;20108;-78
2023/02/09 08:23:30;;;;;;;35.20;22.00;;;2.20;99.90;;;1.35;100.00;102986.44;4154225;28;20046;-79
2023/02/09 08:25:31;;;;;;;34.70;23.38;;;2.30;99.90;;;1.40;100.00;102985.47;4153357;28;20441;-79
2023/02/09 08:27:33;;;;;;;35.67;21.80;;;2.40;99.90;;;1.37;100.00;102995.94;4154903;28;20037;-79
2023/02/09 08:29:34;;;;;;;35.28;23.40;;;2.40;99.90;;;1.20;100.00;102992.06;4169514;28;20026;-79